Time;durP1;ratioP1;P1;durP2;ratioP2;P2;SDS_P1;SDS_P2;PMS_P1;PMS_P2;Temp;Humidity;BMP_temperature;BMP_pressure;BME280_temperature;BME280_humidity;BME280_pressure;Samples;Min_cycle;Max_cycle;Signal;HPM_P1;HPM_P2
2022/12/01 00:01:05;;;;;;;135.30;70.28;;;;;;;2.68;100.00;153213.25;5085452;28;20060;-86
2022/12/01 00:03:31;;;;;;;127.25;69.82;;;;;;;2.69;100.00;153215.78;5090440;28;20034;-86
2022/12/01 00:06:02;;;;;;;130.00;69.95;;;;;;;2.62;100.00;153199.22;5071415;28;20074;-85
2022/12/01 00:08:28;;;;;;;132.90;70.00;;;;;;;2.56;100.00;153182.63;5089883;28;20042;-85
2022/12/01 00:10:55;;;;;;;129.32;68.05;;;;;;;2.61;100.00;153196.66;5074696;28;20130;-85
2022/12/01 00:13:20;;;;;;;136.15;70.57;;;;;;;2.61;100.00;153196.66;5091886;28;20114;-85
2022/12/01 00:15:46;;;;;;;128.43;67.22;;;;;;;2.61;100.00;153196.66;5078553;28;20059;-86
2022/12/01 00:18:12;;;;;;;128.88;68.95;;;;;;;2.60;100.00;153192.81;5092578;28;20142;-85
2022/12/01 00:20:39;;;;;;;137.43;71.25;;;;;;;2.59;100.00;153191.56;5091632;28;20449;-87
2022/12/01 00:23:05;;;;;;;128.13;68.55;;;;;;;2.60;100.00;153194.13;5067827;28;20032;-87
2022/12/01 00:25:31;;;;;;;135.82;68.75;;;;;;;2.49;100.00;153166.06;5084610;28;20492;-84
2022/12/01 00:27:57;;;;;;;131.32;65.60;;;;;;;2.58;100.00;153189.03;5075761;28;20038;-85
2022/12/01 00:30:23;;;;;;;132.25;69.60;;;;;;;2.58;100.00;153189.03;5096375;28;20126;-84
2022/12/01 00:32:48;;;;;;;129.70;68.38;;;;;;;2.57;100.00;153186.44;5111079;28;20039;-84
2022/12/01 00:35:15;;;;;;;126.85;68.22;;;;;;;2.61;100.00;153195.38;5096082;28;20076;-85
2022/12/01 00:37:41;;;;;;;128.35;64.85;;;;;;;2.56;100.00;153182.63;5093571;28;20026;-85
2022/12/01 00:40:08;;;;;;;128.60;68.68;;;;;;;2.50;100.00;153168.59;5093970;28;20391;-85
2022/12/01 00:42:35;;;;;;;125.97;67.38;;;;;;;2.59;100.00;153191.56;5076995;28;20052;-85
2022/12/01 00:45:01;;;;;;;130.48;69.10;;;;;;;2.52;100.00;153175.00;5085691;28;20039;-85
2022/12/01 00:47:26;;;;;;;129.55;70.00;;;;;;;2.56;100.00;153183.88;5084576;28;20039;-85
2022/12/01 00:49:52;;;;;;;140.35;72.10;;;;;;;2.54;100.00;153178.78;5093839;28;20036;-84
2022/12/01 00:52:18;;;;;;;134.52;70.05;;;;;;;2.49;100.00;153166.06;5088807;28;20121;-85
2022/12/01 00:54:44;;;;;;;129.40;69.57;;;;;;;2.49;100.00;153166.06;5092113;28;20047;-86
2022/12/01 00:57:11;;;;;;;133.55;69.65;;;;;;;2.49;100.00;153167.31;5095672;28;20035;-86
2022/12/01 00:59:36;;;;;;;130.30;68.63;;;;;;;2.41;100.00;153146.94;5077145;28;20486;-86
2022/12/01 01:02:04;;;;;;;132.05;68.18;;;;;;;2.52;100.00;153173.69;5081145;28;20032;-85
2022/12/01 01:04:31;;;;;;;131.77;68.43;;;;;;;2.42;100.00;153149.44;5079183;28;20063;-85
2022/12/01 01:06:57;;;;;;;131.10;67.53;;;;;;;2.49;100.00;153167.31;5084369;28;20042;-86
2022/12/01 01:09:24;;;;;;;134.85;70.70;;;;;;;2.43;100.00;153150.72;5074524;28;20036;-84
2022/12/01 01:11:51;;;;;;;135.80;67.78;;;;;;;2.48;100.00;153164.75;5084146;28;20322;-86
2022/12/01 01:14:17;;;;;;;131.10;71.28;;;;;;;2.48;100.00;153164.75;5073077;28;20035;-85
2022/12/01 01:16:42;;;;;;;132.82;69.32;;;;;;;2.49;100.00;153166.06;5073958;28;20052;-86
2022/12/01 01:19:08;;;;;;;132.02;67.15;;;;;;;2.44;100.00;153153.28;5089836;28;20047;-85
2022/12/01 01:21:34;;;;;;;135.75;71.80;;;;;;;2.49;100.00;153166.06;5100823;28;20031;-85
2022/12/01 01:24:00;;;;;;;137.35;69.05;;;;;;;2.37;100.00;153136.69;5066063;28;20494;-85
2022/12/01 01:26:29;;;;;;;138.27;70.78;;;;;;;2.44;100.00;153154.53;5094084;28;20065;-87
2022/12/01 01:28:56;;;;;;;136.98;69.32;;;;;;;2.44;100.00;153153.28;5083593;28;20130;-85
2022/12/01 01:31:24;;;;;;;134.68;70.05;;;;;;;2.45;100.00;153157.13;5096571;28;20037;-85
2022/12/01 01:33:50;;;;;;;131.90;70.85;;;;;;;2.40;100.00;153143.09;5072349;28;20485;-86
2022/12/01 01:36:18;;;;;;;131.32;68.50;;;;;;;2.36;100.00;153134.16;5092874;28;20035;-86
2022/12/01 01:38:44;;;;;;;140.57;70.78;;;;;;;2.49;100.00;153166.06;5081114;28;20032;-87
2022/12/01 01:41:10;;;;;;;137.20;68.72;;;;;;;2.24;100.00;153104.81;5086534;28;20089;-86
2022/12/01 01:43:55;;;;;;;133.45;69.20;;;;;;;2.38;100.00;153139.25;5082375;28;20055;-86
2022/12/01 01:46:23;;;;;;;144.13;72.15;;;;;;;2.41;100.00;153146.94;5088375;28;20043;-85
2022/12/01 01:49:15;;;;;;;132.93;70.70;;;;;;;2.50;100.00;153169.84;5100475;28;20031;-86
2022/12/01 01:51:46;;;;;;;134.25;68.18;;;;;;;2.45;100.00;153157.13;5040150;28;20045;-75
2022/12/01 01:54:18;;;;;;;139.90;70.25;;;;;;;2.46;100.00;153158.38;5014396;28;20675;-75
2022/12/01 01:56:46;;;;;;;143.18;69.25;;;;;;;2.44;100.00;153153.28;5060706;28;20535;-75
2022/12/01 01:59:16;;;;;;;134.75;68.32;;;;;;;2.41;100.00;153146.94;5021441;28;20041;-75
2022/12/01 02:01:41;;;;;;;141.00;71.00;;;;;;;2.45;100.00;153155.81;5029323;28;20090;-76
2022/12/01 02:04:07;;;;;;;143.18;72.30;;;;;;;2.49;100.00;153166.06;5014451;28;20486;-75
2022/12/01 02:06:34;;;;;;;136.00;71.07;;;;;;;2.43;100.00;153152.03;5003282;28;20036;-75
2022/12/01 02:08:59;;;;;;;137.00;71.70;;;;;;;2.46;100.00;153159.66;5023236;28;20029;-76
2022/12/01 02:11:47;;;;;;;136.88;67.35;;;;;;;2.49;100.00;153167.31;5046759;28;20044;-75
2022/12/01 02:14:39;;;;;;;131.95;67.22;;;;;;;2.49;100.00;153167.31;5050229;28;20068;-75
2022/12/01 02:17:40;;;;;;;134.65;64.90;;;;;;;2.48;100.00;153164.75;5047724;28;20040;-75
2022/12/01 02:20:36;;;;;;;140.52;67.70;;;;;;;2.44;100.00;153154.53;5047780;28;20110;-75
2022/12/01 02:23:51;;;;;;;135.35;67.70;;;;;;;2.41;100.00;153145.59;5041751;28;20386;-75
2022/12/01 02:26:34;;;;;;;141.63;65.90;;;;;;;2.42;100.00;153148.19;5030464;28;20037;-75
2022/12/01 02:29:13;;;;;;;146.45;67.43;;;;;;;2.43;100.00;153150.72;5043784;28;20035;-75
2022/12/01 02:32:04;;;;;;;142.98;70.53;;;;;;;2.45;100.00;153155.81;5038311;28;20149;-75
2022/12/01 02:34:42;;;;;;;140.25;67.10;;;;;;;2.41;100.00;153146.94;5025315;28;20409;-76
2022/12/01 02:37:36;;;;;;;142.07;69.20;;;;;;;2.44;100.00;153153.28;5039292;28;20036;-76
2022/12/01 02:40:25;;;;;;;142.52;71.40;;;;;;;2.45;100.00;153157.13;5030910;28;20052;-75
2022/12/01 02:43:01;;;;;;;141.70;71.60;;;;;;;2.45;100.00;153157.13;5042658;28;20044;-75
2022/12/01 02:45:34;;;;;;;140.50;71.07;;;;;;;2.49;100.00;153166.06;5021641;28;20048;-75
2022/12/01 02:48:04;;;;;;;138.48;65.20;;;;;;;2.50;100.00;153169.84;5022519;28;20037;-76
2022/12/01 02:50:32;;;;;;;136.52;69.82;;;;;;;2.54;100.00;153178.78;5014020;28;20789;-75
2022/12/01 02:53:00;;;;;;;143.32;73.50;;;;;;;2.47;100.00;153162.22;5014129;28;20075;-76
2022/12/01 02:55:25;;;;;;;144.68;72.05;;;;;;;2.43;100.00;153152.03;5029863;28;20112;-75
2022/12/01 02:57:51;;;;;;;142.38;68.75;;;;;;;2.52;100.00;153175.00;5035723;28;20570;-75
2022/12/01 03:00:17;;;;;;;141.57;71.38;;;;;;;2.50;100.00;153169.84;5029285;28;20586;-75
2022/12/01 03:03:12;;;;;;;143.13;69.95;;;;;;;2.48;100.00;153164.75;5033868;28;20033;-76
2022/12/01 03:05:51;;;;;;;149.25;70.80;;;;;;;2.46;100.00;153159.66;5003520;28;20047;-76
2022/12/01 03:08:44;;;;;;;146.80;73.93;;;;;;;2.44;100.00;153153.28;5022248;28;20124;-76
2022/12/01 03:11:25;;;;;;;140.60;73.40;;;;;;;2.50;100.00;153168.59;5040089;28;20436;-75
2022/12/01 03:14:25;;;;;;;149.75;74.15;;;;;;;2.40;100.00;153144.34;5036203;28;20393;-76
2022/12/01 03:16:52;;;;;;;157.45;74.80;;;;;;;2.37;100.00;153136.69;4995734;28;20036;-76
2022/12/01 03:19:35;;;;;;;152.30;70.18;;;;;;;2.40;100.00;153144.34;5029769;28;20517;-75
2022/12/01 03:22:14;;;;;;;147.25;69.13;;;;;;;2.41;100.00;153146.94;5046686;28;20029;-76
2022/12/01 03:24:45;;;;;;;151.40;74.65;;;;;;;2.41;100.00;153146.94;5032643;28;20786;-76
2022/12/01 03:27:13;;;;;;;148.85;75.22;;;;;;;2.40;100.00;153144.34;5020176;28;20123;-75
2022/12/01 03:29:43;;;;;;;154.63;74.57;;;;;;;2.38;100.00;153137.97;5048132;28;20516;-75
2022/12/01 03:32:22;;;;;;;148.85;74.45;;;;;;;2.40;100.00;153143.09;5046704;28;20041;-75
2022/12/01 03:34:57;;;;;;;148.40;69.68;;;;;;;2.36;100.00;153134.16;5013907;28;20037;-75
2022/12/01 03:37:31;;;;;;;153.50;72.97;;;;;;;2.38;100.00;153137.97;5041092;28;20037;-75
2022/12/01 03:39:58;;;;;;;152.18;69.57;;;;;;;2.39;100.00;153141.78;5022279;28;20059;-76
2022/12/01 03:42:44;;;;;;;152.07;74.22;;;;;;;2.37;100.00;153135.41;5045658;28;20117;-75
2022/12/01 03:45:29;;;;;;;150.55;73.20;;;;;;;2.42;100.00;153148.19;5015780;28;20037;-76
2022/12/01 03:47:55;;;;;;;153.63;72.85;;;;;;;2.33;100.00;153127.75;5046760;28;20029;-75
2022/12/01 03:50:23;;;;;;;152.20;70.47;;;;;;;2.35;100.00;153131.56;5029882;28;20044;-76
2022/12/01 03:53:10;;;;;;;156.52;71.25;;;;;;;2.36;100.00;153134.16;5018715;28;20029;-75
2022/12/01 03:55:41;;;;;;;156.73;72.25;;;;;;;2.30;100.00;153120.13;5048057;28;20097;-76
2022/12/01 03:58:16;;;;;;;157.48;71.20;;;;;;;2.32;100.00;153125.22;5023736;28;20045;-75
2022/12/01 04:00:48;;;;;;;151.32;68.22;;;;;;;2.30;100.00;153120.13;5051503;28;20059;-76
2022/12/01 04:03:21;;;;;;;142.27;68.25;;;;;;;2.32;100.00;153125.22;5040590;28;20405;-76
2022/12/01 04:05:50;;;;;;;151.15;71.40;;;;;;;2.34;100.00;153129.06;5030683;28;20040;-75
2022/12/01 04:08:16;;;;;;;158.68;72.82;;;;;;;2.36;100.00;153132.88;5020290;28;20137;-75
2022/12/01 04:10:42;;;;;;;157.70;73.25;;;;;;;2.33;100.00;153126.47;5032283;28;20041;-75
2022/12/01 04:13:15;;;;;;;154.95;72.20;;;;;;;2.31;100.00;153122.66;5032869;28;20041;-75
2022/12/01 04:15:42;;;;;;;157.50;71.68;;;;;;;2.32;100.00;153125.22;5013022;28;20063;-76
2022/12/01 04:18:07;;;;;;;166.57;76.55;;;;;;;2.29;100.00;153116.28;5040529;28;20041;-75
2022/12/01 04:20:33;;;;;;;162.00;74.20;;;;;;;2.27;100.00;153111.19;5042537;28;20045;-76
2022/12/01 04:22:58;;;;;;;158.95;69.80;;;;;;;2.26;100.00;153109.91;5024006;28;20033;-75
2022/12/01 04:25:24;;;;;;;159.88;72.07;;;;;;;2.28;100.00;153113.72;5037941;28;20036;-75
2022/12/01 04:27:49;;;;;;;156.30;71.38;;;;;;;2.27;100.00;153111.19;5030541;28;20033;-76
2022/12/01 04:30:15;;;;;;;158.20;75.13;;;;;;;2.27;100.00;153111.19;5020536;28;20048;-75
2022/12/01 04:32:42;;;;;;;167.07;76.32;;;;;;;2.28;100.00;153113.72;5045968;28;20032;-75
2022/12/01 04:35:10;;;;;;;159.30;73.68;;;;;;;2.24;100.00;153104.81;5039302;28;20094;-75
2022/12/01 04:37:37;;;;;;;164.20;75.53;;;;;;;2.28;100.00;153115.03;5038366;28;20397;-75
2022/12/01 04:40:04;;;;;;;160.82;70.80;;;;;;;2.25;100.00;153106.09;5021555;28;20071;-75
2022/12/01 04:42:30;;;;;;;167.80;72.40;;;;;;;2.21;100.00;153095.88;5030014;28;20128;-76
2022/12/01 04:44:55;;;;;;;167.10;74.38;;;;;;;2.24;100.00;153103.50;5045192;28;20115;-76
2022/12/01 04:47:21;;;;;;;155.70;71.32;;;;;;;2.22;100.00;153099.66;5027418;28;20044;-75
2022/12/01 04:49:47;;;;;;;170.23;71.80;;;;;;;2.21;100.00;153097.16;5035805;28;20041;-75
2022/12/01 04:52:13;;;;;;;159.55;75.40;;;;;;;2.20;100.00;153093.31;5022414;28;20428;-76
2022/12/01 04:54:39;;;;;;;155.85;74.10;;;;;;;2.20;100.00;153094.56;5046960;28;20035;-76
2022/12/01 04:57:04;;;;;;;160.45;71.72;;;;;;;2.22;100.00;153098.41;5013251;28;20037;-75
2022/12/01 04:59:30;;;;;;;164.52;74.85;;;;;;;2.19;100.00;153092.06;5026327;28;20124;-75
2022/12/01 05:01:56;;;;;;;167.45;72.20;;;;;;;2.20;100.00;153093.31;5029950;28;20073;-75
2022/12/01 05:04:21;;;;;;;162.48;76.07;;;;;;;2.19;100.00;153090.78;5022922;28;20982;-75
2022/12/01 05:06:47;;;;;;;165.75;70.70;;;;;;;2.15;100.00;153081.84;5030232;28;20128;-75
2022/12/01 05:09:14;;;;;;;158.90;74.07;;;;;;;2.17;100.00;153086.94;5022664;28;20060;-75
2022/12/01 05:11:41;;;;;;;170.73;76.40;;;;;;;2.13;100.00;153076.75;5025834;28;20061;-75
2022/12/01 05:14:06;;;;;;;166.82;76.72;;;;;;;2.14;100.00;153079.28;5018673;28;20106;-75
2022/12/01 05:16:33;;;;;;;168.27;75.95;;;;;;;2.14;100.00;153079.28;5045368;28;20792;-75
2022/12/01 05:21:47;;;;;;;162.15;70.72;;;;;;;2.16;100.00;153084.38;5044620;28;20490;-75
2022/12/01 05:24:14;;;;;;;155.30;69.18;;;;;;;2.11;100.00;153071.59;5029376;28;20038;-75
2022/12/01 05:26:41;;;;;;;150.18;66.97;;;;;;;2.12;100.00;153074.19;5032007;28;20176;-74
2022/12/01 05:29:09;;;;;;;151.07;68.63;;;;;;;2.06;100.00;153058.88;5009366;28;20032;-75
2022/12/01 05:31:35;;;;;;;150.85;66.00;;;;;;;2.06;100.00;153060.16;5026975;28;20032;-75
2022/12/01 05:34:00;;;;;;;149.95;72.32;;;;;;;2.09;100.00;153066.50;5050049;28;20508;-75
2022/12/01 05:36:26;;;;;;;147.75;66.03;;;;;;;2.10;100.00;153070.34;5044442;28;20041;-75
2022/12/01 05:38:51;;;;;;;155.30;66.75;;;;;;;2.08;100.00;153064.00;5050638;28;20052;-75
2022/12/01 05:41:17;;;;;;;142.70;68.32;;;;;;;2.06;100.00;153058.88;5022366;28;20449;-75
2022/12/01 05:43:43;;;;;;;152.32;67.15;;;;;;;2.04;100.00;153053.78;5048624;28;20044;-76
2022/12/01 05:46:09;;;;;;;146.77;72.05;;;;;;;2.10;100.00;153069.09;5042102;28;20075;-74
2022/12/01 05:48:34;;;;;;;145.95;70.15;;;;;;;2.13;100.00;153076.75;5047691;28;20051;-75
2022/12/01 05:51:07;;;;;;;154.38;68.18;;;;;;;2.12;100.00;153074.19;5023278;28;20075;-75
2022/12/01 05:53:33;;;;;;;153.55;69.70;;;;;;;2.11;100.00;153071.59;5033536;28;20519;-75
2022/12/01 05:55:58;;;;;;;154.43;70.63;;;;;;;2.11;100.00;153072.91;5022214;28;20178;-76
2022/12/01 05:58:24;;;;;;;154.60;70.00;;;;;;;2.09;100.00;153067.81;5049883;28;20044;-75
2022/12/01 06:00:50;;;;;;;154.68;67.82;;;;;;;2.08;100.00;153064.00;5039374;28;20068;-75
2022/12/01 06:03:15;;;;;;;154.98;68.18;;;;;;;2.11;100.00;153071.59;5036980;28;20040;-75
2022/12/01 06:05:41;;;;;;;162.85;72.80;;;;;;;2.07;100.00;153062.72;5072515;22;20036;-75
2022/12/01 06:08:06;;;;;;;151.50;67.50;;;;;;;2.09;100.00;153067.81;5056550;28;20036;-76
2022/12/01 06:10:32;;;;;;;160.82;69.28;;;;;;;2.08;100.00;153065.25;5061958;28;20392;-75
2022/12/01 06:12:58;;;;;;;166.73;67.70;;;;;;;2.06;100.00;153060.16;5088306;28;20083;-76
2022/12/01 06:15:23;;;;;;;164.10;70.85;;;;;;;2.05;100.00;153057.59;5088382;28;20050;-75
2022/12/01 06:17:49;;;;;;;162.13;68.00;;;;;;;2.07;100.00;153062.72;5047771;28;20519;-75
2022/12/01 06:20:15;;;;;;;163.18;74.00;;;;;;;2.12;100.00;153074.19;5086320;28;20028;-74
2022/12/01 06:22:41;;;;;;;155.00;67.20;;;;;;;2.09;100.00;153066.50;5083536;28;20523;-75
2022/12/01 06:25:07;;;;;;;166.70;69.97;;;;;;;2.09;100.00;153067.81;5078466;28;20096;-75
2022/12/01 06:27:33;;;;;;;165.18;71.40;;;;;;;2.13;100.00;153076.75;5053545;28;20545;-74
2022/12/01 06:29:58;;;;;;;161.82;72.97;;;;;;;2.13;100.00;153078.03;5087069;28;20048;-75
2022/12/01 06:32:24;;;;;;;162.50;70.63;;;;;;;2.13;100.00;153076.75;5055015;28;20075;-75
2022/12/01 06:34:49;;;;;;;167.98;72.43;;;;;;;2.10;100.00;153070.34;5065216;28;20400;-75
2022/12/01 06:37:15;;;;;;;164.80;73.07;;;;;;;2.09;100.00;153067.81;5061694;28;20403;-74
2022/12/01 06:39:41;;;;;;;171.55;72.03;;;;;;;2.08;100.00;153065.25;5069465;28;20559;-74
2022/12/01 06:42:07;;;;;;;161.55;70.70;;;;;;;2.12;100.00;153075.44;5078324;28;20074;-74
2022/12/01 06:44:33;;;;;;;168.00;68.80;;;;;;;2.08;100.00;153065.25;5077456;28;20056;-75
2022/12/01 06:46:58;;;;;;;168.45;73.78;;;;;;;2.11;100.00;153071.59;5058733;28;20046;-75
2022/12/01 06:49:24;;;;;;;167.38;68.35;;;;;;;2.11;100.00;153071.59;5071205;28;20040;-75
2022/12/01 06:51:50;;;;;;;171.48;67.95;;;;;;;2.08;100.00;153064.00;5065498;28;20370;-75
2022/12/01 06:54:16;;;;;;;170.68;72.45;;;;;;;2.06;100.00;153058.88;5042172;28;20497;-75
2022/12/01 06:56:43;;;;;;;174.75;71.03;;;;;;;2.00;100.00;153043.56;5067489;28;20027;-76
2022/12/01 06:59:09;;;;;;;170.68;73.47;;;;;;;2.02;100.00;153049.97;5043914;28;20488;-75
2022/12/01 07:01:35;;;;;;;168.95;73.38;;;;;;;2.00;100.00;153044.84;5058276;28;20040;-73
2022/12/01 07:04:00;;;;;;;174.48;74.38;;;;;;;2.02;100.00;153049.97;5076654;28;20150;-75
2022/12/01 07:06:29;;;;;;;172.73;73.20;;;;;;;2.08;100.00;153064.00;5062351;28;20028;-75
2022/12/01 07:08:54;;;;;;;171.93;72.32;;;;;;;2.09;100.00;153067.81;5054147;28;20435;-75
2022/12/01 07:11:20;;;;;;;172.50;72.53;;;;;;;2.08;100.00;153065.25;5052309;28;20044;-75
2022/12/01 07:13:45;;;;;;;167.50;70.93;;;;;;;2.08;100.00;153065.25;5048541;28;20044;-75
2022/12/01 07:16:11;;;;;;;169.45;71.40;;;;;;;2.09;100.00;153066.50;5082221;28;20089;-74
2022/12/01 07:18:37;;;;;;;168.63;71.18;;;;;;;2.08;100.00;153064.00;5091839;28;20064;-75
2022/12/01 07:21:09;;;;;;;173.95;73.10;;;;;;;2.11;100.00;153071.59;5083541;28;20569;-74
2022/12/01 07:23:35;;;;;;;169.57;68.85;;;;;;;2.14;100.00;153079.28;5052327;28;20028;-74
2022/12/01 07:26:14;;;;;;;165.15;72.63;;;;;;;2.14;100.00;153079.28;5070094;28;20457;-75
2022/12/01 07:28:40;;;;;;;174.65;70.93;;;;;;;2.13;100.00;153078.03;5081902;28;20043;-75
2022/12/01 07:31:13;;;;;;;172.77;74.35;;;;;;;2.11;100.00;153072.91;5079398;28;20032;-75
2022/12/01 07:33:38;;;;;;;174.50;69.63;;;;;;;2.08;100.00;153065.25;5063000;28;20473;-75
2022/12/01 07:36:05;;;;;;;177.23;74.93;;;;;;;2.11;100.00;153072.91;5070310;28;20036;-75
2022/12/01 07:38:32;;;;;;;170.55;71.82;;;;;;;2.18;100.00;153088.22;5070495;28;20032;-75
2022/12/01 07:41:18;;;;;;;171.95;71.45;;;;;;;2.14;100.00;153080.53;5054501;28;20043;-75
2022/12/01 07:43:44;;;;;;;167.88;69.63;;;;;;;2.23;100.00;153102.25;5083704;28;20135;-75
2022/12/01 07:46:20;;;;;;;167.48;71.15;;;;;;;2.19;100.00;153092.06;5075941;28;20055;-75
2022/12/01 07:48:47;;;;;;;170.02;68.97;;;;;;;2.24;100.00;153103.50;5064299;28;20024;-75
2022/12/01 07:51:15;;;;;;;162.25;67.72;;;;;;;2.20;100.00;153094.56;5041459;28;20205;-75
2022/12/01 07:53:42;;;;;;;165.63;70.78;;;;;;;2.22;100.00;153099.66;5076744;28;20033;-75
2022/12/01 07:56:08;;;;;;;156.95;69.32;;;;;;;2.22;100.00;153099.66;5049254;28;20037;-75
2022/12/01 07:58:33;;;;;;;165.90;70.63;;;;;;;2.22;100.00;153099.66;5060554;28;20045;-75
2022/12/01 08:01:05;;;;;;;173.45;71.10;;;;;;;2.25;100.00;153106.09;5060278;28;20553;-75
2022/12/01 08:03:31;;;;;;;171.98;71.75;;;;;;;2.22;100.00;153098.41;5069639;28;20039;-75
2022/12/01 08:05:57;;;;;;;175.93;72.22;;;;;;;2.20;100.00;153094.56;5055586;28;20037;-75
2022/12/01 08:08:24;;;;;;;180.10;72.03;;;;;;;2.18;100.00;153088.22;5057611;28;20032;-75
2022/12/01 08:10:50;;;;;;;189.32;71.65;;;;;;;2.17;100.00;153086.94;5058124;28;20044;-75
2022/12/01 08:13:16;;;;;;;179.00;68.78;;;;;;;2.12;100.00;153075.44;5049049;28;20036;-75
2022/12/01 08:15:42;;;;;;;177.30;71.68;;;;;;;2.16;100.00;153084.38;5060359;28;20034;-75
2022/12/01 08:18:07;;;;;;;187.40;70.85;;;;;;;2.19;100.00;153092.06;5067339;28;20100;-75
2022/12/01 08:20:33;;;;;;;178.57;70.50;;;;;;;2.20;100.00;153094.56;5075334;28;20111;-75
2022/12/01 08:23:00;;;;;;;192.23;72.28;;;;;;;2.21;100.00;153095.88;5070016;28;20511;-75
2022/12/01 08:25:27;;;;;;;187.45;72.68;;;;;;;2.23;100.00;153102.25;5079853;28;20572;-75
2022/12/01 08:27:52;;;;;;;194.60;73.03;;;;;;;2.25;100.00;153107.34;5057206;28;20463;-75
2022/12/01 08:30:18;;;;;;;195.13;73.80;;;;;;;2.24;100.00;153103.50;5060159;28;20485;-75
2022/12/01 08:32:44;;;;;;;186.02;73.15;;;;;;;2.20;100.00;153094.56;5077905;28;20105;-75
2022/12/01 08:35:09;;;;;;;192.07;72.90;;;;;;;2.27;100.00;153112.44;5067596;28;20514;-75
2022/12/01 08:37:35;;;;;;;193.38;72.28;;;;;;;2.21;100.00;153097.16;5088740;28;20032;-75
2022/12/01 08:40:01;;;;;;;189.20;72.88;;;;;;;2.22;100.00;153099.66;5081038;28;20123;-75
2022/12/01 08:42:26;;;;;;;202.07;72.80;;;;;;;2.21;100.00;153095.88;5079409;28;20044;-75
2022/12/01 08:44:52;;;;;;;199.27;69.57;;;;;;;2.20;100.00;153094.56;5059431;28;20040;-75
2022/12/01 08:47:18;;;;;;;198.00;72.93;;;;;;;2.25;100.00;153107.34;5079149;28;20445;-75
2022/12/01 08:49:43;;;;;;;212.25;74.57;;;;;;;2.26;100.00;153109.91;5055784;28;20656;-75
2022/12/01 08:52:09;;;;;;;207.70;71.47;;;;;;;2.22;100.00;153099.66;5085951;28;20124;-75
2022/12/01 08:54:35;;;;;;;217.98;79.20;;;;;;;2.22;100.00;153098.41;5085004;28;20040;-75
2022/12/01 08:57:00;;;;;;;225.70;80.00;;;;;;;2.22;100.00;153098.41;5050142;28;20074;-75
2022/12/01 08:59:26;;;;;;;254.85;79.70;;;;;;;2.16;100.00;153084.38;5054804;28;20067;-75
2022/12/01 09:01:52;;;;;;;256.35;77.97;;;;;;;2.16;100.00;153083.13;5062745;28;20037;-75
2022/12/01 09:04:23;;;;;;;247.45;78.30;;;;;;;2.24;100.00;153103.50;5080104;28;20031;-75
2022/12/01 09:06:50;;;;;;;246.00;74.55;;;;;;;2.23;100.00;153102.25;5075607;28;20058;-75
2022/12/01 09:09:25;;;;;;;260.02;80.63;;;;;;;2.22;100.00;153098.41;5052654;28;20556;-75
2022/12/01 09:11:51;;;;;;;240.32;74.82;;;;;;;2.24;100.00;153103.50;5081927;28;20036;-75
2022/12/01 09:14:18;;;;;;;252.55;79.70;;;;;;;2.29;100.00;153116.28;5062050;28;20036;-75
2022/12/01 09:16:46;;;;;;;255.98;81.30;;;;;;;2.29;100.00;153117.53;5063565;28;20063;-75
2022/12/01 09:19:13;;;;;;;253.20;78.15;;;;;;;2.27;100.00;153112.44;5088405;28;20127;-75
2022/12/01 09:21:41;;;;;;;244.10;74.75;;;;;;;2.28;100.00;153115.03;5049472;28;20036;-75
2022/12/01 09:24:09;;;;;;;248.60;73.55;;;;;;;2.30;100.00;153118.84;5040120;28;20044;-75
2022/12/01 09:26:35;;;;;;;269.88;78.05;;;;;;;2.32;100.00;153123.94;5082232;28;20472;-75
2022/12/01 09:29:07;;;;;;;270.40;74.70;;;;;;;2.29;100.00;153116.28;5087576;28;20110;-74
2022/12/01 09:31:34;;;;;;;272.23;76.63;;;;;;;2.23;100.00;153102.25;5085833;28;20057;-75
2022/12/01 09:34:05;;;;;;;274.00;80.50;;;;;;;2.18;100.00;153088.22;5059753;28;20040;-75
2022/12/01 09:36:32;;;;;;;265.73;74.87;;;;;;;2.14;100.00;153080.53;5068013;28;20143;-75
2022/12/01 09:38:59;;;;;;;290.13;81.43;;;;;;;2.21;100.00;153095.88;5049595;28;20477;-75
2022/12/01 09:41:44;;;;;;;289.33;79.65;;;;;;;2.30;100.00;153118.84;5061252;28;20121;-75
2022/12/01 09:44:13;;;;;;;283.45;79.57;;;;;;;2.30;100.00;153118.84;5079509;28;20048;-75
2022/12/01 09:47:19;;;;;;;286.23;81.35;;;;;;;2.25;100.00;153107.34;5042248;28;20159;-75
2022/12/01 09:49:49;;;;;;;286.30;80.20;;;;;;;2.25;100.00;153107.34;5053688;28;20089;-75
2022/12/01 09:52:18;;;;;;;307.77;82.43;;;;;;;2.24;100.00;153104.81;5068940;28;20028;-75
2022/12/01 09:54:45;;;;;;;295.65;84.97;;;;;;;2.18;100.00;153089.47;5084525;28;20032;-75
2022/12/01 09:57:23;;;;;;;293.40;82.75;;;;;;;2.21;100.00;153097.16;5060759;28;20046;-75
2022/12/01 09:59:50;;;;;;;274.52;78.05;;;;;;;2.12;100.00;153075.44;5058209;28;20032;-75
2022/12/01 10:02:28;;;;;;;262.02;75.32;;;;;;;2.09;100.00;153066.50;5063559;28;20759;-75
2022/12/01 10:04:56;;;;;;;295.92;83.75;;;;;;;2.06;100.00;153060.16;5067853;28;20071;-74
2022/12/01 10:07:38;;;;;;;302.02;79.55;;;;;;;1.95;100.00;153033.34;5088098;28;20035;-75
2022/12/01 10:10:12;;;;;;;289.02;72.63;;;;;;;1.97;100.00;153035.94;5087099;28;20036;-75
2022/12/01 10:12:41;;;;;;;283.48;71.03;;;;;;;1.93;100.00;153028.25;5069008;28;20044;-75
2022/12/01 10:15:31;;;;;;;277.15;72.85;;;;;;;1.79;100.00;152991.28;5063346;28;20037;-75
2022/12/01 10:18:36;;;;;;;303.70;74.80;;;;;;;1.72;100.00;152974.72;5081654;28;20048;-74
2022/12/01 10:21:07;;;;;;;285.27;72.18;;;;;;;1.59;100.00;152941.56;5074343;28;20044;-74
2022/12/01 10:23:50;;;;;;;300.85;74.03;;;;;;;1.58;100.00;152940.25;5062557;28;20377;-74
2022/12/01 10:26:27;;;;;;;286.65;71.05;;;;;;;1.63;100.00;152951.75;5061062;28;20036;-75
2022/12/01 10:29:05;;;;;;;271.95;69.80;;;;;;;1.59;100.00;152941.56;5055818;28;20123;-75
2022/12/01 10:31:38;;;;;;;273.50;67.70;;;;;;;1.52;100.00;152926.22;5082589;28;20083;-75
2022/12/01 10:34:10;;;;;;;287.65;71.30;;;;;;;1.51;100.00;152923.72;5078744;28;20085;-74
2022/12/01 10:36:35;;;;;;;280.58;68.53;;;;;;;1.41;100.00;152896.91;5058802;28;20067;-75
2022/12/01 10:39:05;;;;;;;294.52;70.80;;;;;;;1.30;100.00;152870.13;5063991;28;20075;-75
2022/12/01 10:41:35;;;;;;;263.92;63.22;;;;;;;1.32;100.00;152875.28;5055672;28;20181;-74
2022/12/01 10:44:04;;;;;;;275.75;66.18;;;;;;;1.27;100.00;152862.53;5067935;28;20389;-75
2022/12/01 10:46:44;;;;;;;276.95;66.45;;;;;;;1.25;100.00;152857.41;5066455;28;20450;-75
2022/12/01 10:49:13;;;;;;;263.13;63.88;;;;;;;1.32;100.00;152875.28;5057228;28;20516;-75
2022/12/01 10:51:54;;;;;;;270.05;63.67;;;;;;;1.23;100.00;152852.31;5060483;28;20040;-75
2022/12/01 10:54:22;;;;;;;257.52;61.63;;;;;;;1.22;100.00;152849.75;5055019;28;20102;-74
2022/12/01 10:56:53;;;;;;;215.13;56.17;;;;;;;1.30;100.00;152870.13;5059468;28;20036;-75
2022/12/01 10:59:26;;;;;;;192.43;52.92;;;;;;;1.25;100.00;152857.41;5063968;28;20037;-75
2022/12/01 11:01:53;;;;;;;182.35;50.00;;;;;;;1.19;100.00;152842.09;5061440;28;20054;-75
2022/12/01 11:04:28;;;;;;;160.40;48.17;;;;;;;1.24;100.00;152854.84;5049010;28;20104;-75
2022/12/01 11:06:54;;;;;;;151.05;48.33;;;;;;;1.13;100.00;152828.06;5059500;28;20466;-75
2022/12/01 11:09:23;;;;;;;152.43;48.00;;;;;;;1.14;100.00;152831.91;5067375;28;20052;-75
2022/12/01 11:11:55;;;;;;;149.45;47.33;;;;;;;1.17;100.00;152838.31;5052162;28;20494;-75
2022/12/01 11:14:30;;;;;;;137.13;46.03;;;;;;;1.19;100.00;152842.09;5077264;28;20032;-74
2022/12/01 11:17:14;;;;;;;133.70;44.88;;;;;;;1.19;100.00;152843.41;5086376;28;20281;-74